sensor_id;sensor_type;location;lat;lon;timestamp;pressure;altitude;pressure_sealevel;temperature;humidity
85918;BME280;76456;49.310;8.632;2024-02-14T00:00:17;100995.09;;;3.63;80.63
85918;BME280;76456;49.310;8.632;2024-02-14T00:02:46;100992.84;;;3.79;80.17
85918;BME280;76456;49.310;8.632;2024-02-14T00:05:14;100993.09;;;3.96;79.48
85918;BME280;76456;49.310;8.632;2024-02-14T00:07:39;100986.91;;;4.03;78.93
85918;BME280;76456;49.310;8.632;2024-02-14T00:10:05;100979.72;;;4.13;78.00
85918;BME280;76456;49.310;8.632;2024-02-14T00:12:32;100999.28;;;4.39;78.03
85918;BME280;76456;49.310;8.632;2024-02-14T00:14:58;101005.78;;;4.47;77.58
85918;BME280;76456;49.310;8.632;2024-02-14T00:17:23;101009.00;;;4.52;76.54
85918;BME280;76456;49.310;8.632;2024-02-14T00:19:48;101006.50;;;4.51;77.13
85918;BME280;76456;49.310;8.632;2024-02-14T00:22:14;101019.09;;;4.56;76.68
85918;BME280;76456;49.310;8.632;2024-02-14T00:24:39;101012.75;;;4.66;75.90
85918;BME280;76456;49.310;8.632;2024-02-14T00:27:05;101011.69;;;4.71;76.27
85918;BME280;76456;49.310;8.632;2024-02-14T00:29:31;101023.22;;;4.83;75.38
85918;BME280;76456;49.310;8.632;2024-02-14T00:31:59;101022.22;;;4.87;75.73
85918;BME280;76456;49.310;8.632;2024-02-14T00:34:25;101023.88;;;4.88;75.69
85918;BME280;76456;49.310;8.632;2024-02-14T00:36:50;101018.91;;;4.83;76.30
85918;BME280;76456;49.310;8.632;2024-02-14T00:39:15;100998.56;;;4.80;75.53
85918;BME280;76456;49.310;8.632;2024-02-14T00:41:41;101013.66;;;4.88;75.15
85918;BME280;76456;49.310;8.632;2024-02-14T00:44:06;101020.25;;;4.93;75.64
85918;BME280;76456;49.310;8.632;2024-02-14T00:46:31;100994.91;;;4.87;75.17
85918;BME280;76456;49.310;8.632;2024-02-14T00:48:57;101014.91;;;5.00;75.09
85918;BME280;76456;49.310;8.632;2024-02-14T00:51:22;101008.91;;;5.01;74.90
85918;BME280;76456;49.310;8.632;2024-02-14T00:53:47;101012.03;;;5.07;75.53
85918;BME280;76456;49.310;8.632;2024-02-14T00:56:13;101016.22;;;5.10;75.03
85918;BME280;76456;49.310;8.632;2024-02-14T00:58:38;100992.47;;;5.06;75.02
85918;BME280;76456;49.310;8.632;2024-02-14T01:01:04;100995.91;;;5.05;75.41
85918;BME280;76456;49.310;8.632;2024-02-14T01:03:30;100977.28;;;5.02;75.28
85918;BME280;76456;49.310;8.632;2024-02-14T01:05:55;100997.03;;;5.20;75.34
85918;BME280;76456;49.310;8.632;2024-02-14T01:08:21;100995.84;;;5.28;74.57
85918;BME280;76456;49.310;8.632;2024-02-14T01:10:46;101001.56;;;5.35;75.09
85918;BME280;76456;49.310;8.632;2024-02-14T01:13:12;101004.63;;;5.43;74.39
85918;BME280;76456;49.310;8.632;2024-02-14T01:15:37;100997.59;;;5.48;73.82
85918;BME280;76456;49.310;8.632;2024-02-14T01:18:03;100989.66;;;5.54;73.24
85918;BME280;76456;49.310;8.632;2024-02-14T01:20:28;100966.28;;;5.42;73.25
85918;BME280;76456;49.310;8.632;2024-02-14T01:22:54;100992.75;;;5.62;72.92
85918;BME280;76456;49.310;8.632;2024-02-14T01:25:20;100990.88;;;5.66;73.04
85918;BME280;76456;49.310;8.632;2024-02-14T01:27:45;100990.13;;;5.64;73.21
85918;BME280;76456;49.310;8.632;2024-02-14T01:30:11;100985.75;;;5.66;73.53
85918;BME280;76456;49.310;8.632;2024-02-14T01:32:37;100983.28;;;5.64;73.50
85918;BME280;76456;49.310;8.632;2024-02-14T01:35:02;100983.28;;;5.64;72.89
85918;BME280;76456;49.310;8.632;2024-02-14T01:37:29;100957.19;;;5.55;72.92
85918;BME280;76456;49.310;8.632;2024-02-14T01:39:54;100980.38;;;5.72;72.77
85918;BME280;76456;49.310;8.632;2024-02-14T01:42:19;100975.41;;;5.69;73.25
85918;BME280;76456;49.310;8.632;2024-02-14T01:44:45;100951.31;;;5.53;74.12
85918;BME280;76456;49.310;8.632;2024-02-14T01:47:11;100953.44;;;5.63;73.85
85918;BME280;76456;49.310;8.632;2024-02-14T01:49:38;100964.25;;;5.70;74.71
85918;BME280;76456;49.310;8.632;2024-02-14T01:52:04;100948.25;;;5.65;74.32
85918;BME280;76456;49.310;8.632;2024-02-14T01:54:31;100952.19;;;5.72;73.72
85918;BME280;76456;49.310;8.632;2024-02-14T01:56:57;100942.88;;;5.71;73.97
85918;BME280;76456;49.310;8.632;2024-02-14T01:59:24;100943.66;;;5.71;73.99
85918;BME280;76456;49.310;8.632;2024-02-14T02:01:50;100940.16;;;5.74;74.70
85918;BME280;76456;49.310;8.632;2024-02-14T02:04:16;100941.88;;;5.73;73.60
85918;BME280;76456;49.310;8.632;2024-02-14T02:06:43;100944.25;;;5.78;73.94
85918;BME280;76456;49.310;8.632;2024-02-14T02:09:08;100943.41;;;5.77;73.79
85918;BME280;76456;49.310;8.632;2024-02-14T02:11:46;100927.91;;;5.60;74.57
85918;BME280;76456;49.310;8.632;2024-02-14T02:14:14;100933.78;;;5.64;74.66
85918;BME280;76456;49.310;8.632;2024-02-14T02:16:39;100928.44;;;5.68;74.18
85918;BME280;76456;49.310;8.632;2024-02-14T02:19:05;100906.09;;;5.52;74.14
85918;BME280;76456;49.310;8.632;2024-02-14T02:21:33;100919.03;;;5.69;73.98
85918;BME280;76456;49.310;8.632;2024-02-14T02:24:00;100932.34;;;5.77;74.28
85918;BME280;76456;49.310;8.632;2024-02-14T02:26:26;100932.78;;;5.87;73.85
85918;BME280;76456;49.310;8.632;2024-02-14T02:28:51;100926.81;;;5.86;73.33
85918;BME280;76456;49.310;8.632;2024-02-14T02:31:16;100931.56;;;5.95;72.92
85918;BME280;76456;49.310;8.632;2024-02-14T02:33:42;100919.78;;;5.91;73.14
85918;BME280;76456;49.310;8.632;2024-02-14T02:36:08;100920.78;;;5.89;73.56
85918;BME280;76456;49.310;8.632;2024-02-14T02:38:35;100923.16;;;5.71;73.74
85918;BME280;76456;49.310;8.632;2024-02-14T02:41:02;100922.31;;;5.52;74.67
85918;BME280;76456;49.310;8.632;2024-02-14T02:43:27;100915.13;;;5.40;74.21
85918;BME280;76456;49.310;8.632;2024-02-14T02:45:53;100918.41;;;5.23;75.19
85918;BME280;76456;49.310;8.632;2024-02-14T02:48:18;100917.22;;;5.30;75.03
85918;BME280;76456;49.310;8.632;2024-02-14T02:50:45;100906.03;;;5.33;74.51
85918;BME280;76456;49.310;8.632;2024-02-14T02:53:14;100921.84;;;5.43;74.44
85918;BME280;76456;49.310;8.632;2024-02-14T02:55:40;100926.59;;;5.52;74.67
85918;BME280;76456;49.310;8.632;2024-02-14T02:58:05;100911.28;;;5.50;73.81
85918;BME280;76456;49.310;8.632;2024-02-14T03:00:32;100923.06;;;5.74;72.61
85918;BME280;76456;49.310;8.632;2024-02-14T03:02:57;100918.97;;;5.91;71.85
85918;BME280;76456;49.310;8.632;2024-02-14T03:05:22;100921.75;;;6.05;72.71
85918;BME280;76456;49.310;8.632;2024-02-14T03:07:48;100917.53;;;6.04;71.76
85918;BME280;76456;49.310;8.632;2024-02-14T03:10:15;100937.63;;;6.32;70.17
85918;BME280;76456;49.310;8.632;2024-02-14T03:12:45;100921.91;;;6.39;69.76
85918;BME280;76456;49.310;8.632;2024-02-14T03:15:13;100943.25;;;6.58;69.15
85918;BME280;76456;49.310;8.632;2024-02-14T03:17:39;100933.97;;;6.56;68.95
85918;BME280;76456;49.310;8.632;2024-02-14T03:20:05;100939.59;;;6.64;68.63
85918;BME280;76456;49.310;8.632;2024-02-14T03:22:43;100933.19;;;6.54;69.36
85918;BME280;76456;49.310;8.632;2024-02-14T03:25:19;100934.56;;;6.61;68.61
85918;BME280;76456;49.310;8.632;2024-02-14T03:27:45;100939.81;;;6.60;69.10
85918;BME280;76456;49.310;8.632;2024-02-14T03:30:12;100945.91;;;6.57;69.10
85918;BME280;76456;49.310;8.632;2024-02-14T03:32:38;100933.56;;;6.46;69.45
85918;BME280;76456;49.310;8.632;2024-02-14T03:35:03;100932.03;;;6.42;69.49
85918;BME280;76456;49.310;8.632;2024-02-14T03:37:29;100931.41;;;6.37;69.61
85918;BME280;76456;49.310;8.632;2024-02-14T03:39:54;100935.50;;;6.41;70.26
85918;BME280;76456;49.310;8.632;2024-02-14T03:42:20;100947.84;;;6.52;69.92
85918;BME280;76456;49.310;8.632;2024-02-14T03:44:45;100954.81;;;6.48;70.19
85918;BME280;76456;49.310;8.632;2024-02-14T03:47:11;100927.09;;;6.38;70.55
85918;BME280;76456;49.310;8.632;2024-02-14T03:49:38;100961.56;;;6.51;70.74
85918;BME280;76456;49.310;8.632;2024-02-14T03:52:04;100955.81;;;6.46;70.96
85918;BME280;76456;49.310;8.632;2024-02-14T03:54:35;100943.66;;;6.49;69.97
85918;BME280;76456;49.310;8.632;2024-02-14T03:57:00;100931.97;;;6.44;69.69
85918;BME280;76456;49.310;8.632;2024-02-14T03:59:26;100954.66;;;6.53;69.59
85918;BME280;76456;49.310;8.632;2024-02-14T04:01:51;100954.38;;;6.59;69.38
85918;BME280;76456;49.310;8.632;2024-02-14T04:04:18;100956.78;;;6.62;69.21
85918;BME280;76456;49.310;8.632;2024-02-14T04:06:44;100966.09;;;6.65;68.86
85918;BME280;76456;49.310;8.632;2024-02-14T04:09:11;100942.66;;;6.53;69.54
85918;BME280;76456;49.310;8.632;2024-02-14T04:11:36;100960.19;;;6.63;69.29
85918;BME280;76456;49.310;8.632;2024-02-14T04:14:01;100959.97;;;6.67;69.26
85918;BME280;76456;49.310;8.632;2024-02-14T04:16:26;100947.28;;;6.64;68.84
85918;BME280;76456;49.310;8.632;2024-02-14T04:18:52;100961.41;;;6.73;68.82
85918;BME280;76456;49.310;8.632;2024-02-14T04:21:18;100951.97;;;6.73;69.16
85918;BME280;76456;49.310;8.632;2024-02-14T04:23:43;100934.53;;;6.63;69.26
85918;BME280;76456;49.310;8.632;2024-02-14T04:26:09;100947.34;;;6.81;69.28
85918;BME280;76456;49.310;8.632;2024-02-14T04:28:34;100961.75;;;6.84;69.71
85918;BME280;76456;49.310;8.632;2024-02-14T04:30:59;100966.81;;;6.85;69.11
85918;BME280;76456;49.310;8.632;2024-02-14T04:33:25;100956.09;;;6.77;68.95
85918;BME280;76456;49.310;8.632;2024-02-14T04:35:50;100972.16;;;6.81;69.91
85918;BME280;76456;49.310;8.632;2024-02-14T04:38:16;100975.78;;;6.77;69.95
85918;BME280;76456;49.310;8.632;2024-02-14T04:40:43;100975.91;;;6.74;69.95
85918;BME280;76456;49.310;8.632;2024-02-14T04:43:09;100963.34;;;6.68;70.27
85918;BME280;76456;49.310;8.632;2024-02-14T04:45:35;100966.69;;;6.70;69.60
85918;BME280;76456;49.310;8.632;2024-02-14T04:48:00;100975.13;;;6.72;70.69
85918;BME280;76456;49.310;8.632;2024-02-14T04:50:26;100979.47;;;6.71;70.30
85918;BME280;76456;49.310;8.632;2024-02-14T04:52:51;100980.97;;;6.75;70.10
85918;BME280;76456;49.310;8.632;2024-02-14T04:55:16;100973.50;;;6.71;70.58
85918;BME280;76456;49.310;8.632;2024-02-14T04:57:42;100976.53;;;6.79;70.04
85918;BME280;76456;49.310;8.632;2024-02-14T05:00:09;100947.19;;;6.66;71.01
85918;BME280;76456;49.310;8.632;2024-02-14T05:02:35;100963.06;;;6.74;71.64
85918;BME280;76456;49.310;8.632;2024-02-14T05:05:01;100969.88;;;6.75;72.06
85918;BME280;76456;49.310;8.632;2024-02-14T05:07:27;100985.00;;;6.81;70.93
85918;BME280;76456;49.310;8.632;2024-02-14T05:09:52;100983.75;;;6.71;72.24
85918;BME280;76456;49.310;8.632;2024-02-14T05:12:20;100977.78;;;6.70;71.78
85918;BME280;76456;49.310;8.632;2024-02-14T05:14:45;100970.22;;;6.67;72.15
85918;BME280;76456;49.310;8.632;2024-02-14T05:17:11;100972.66;;;6.70;72.03
85918;BME280;76456;49.310;8.632;2024-02-14T05:19:36;100962.94;;;6.77;71.32
85918;BME280;76456;49.310;8.632;2024-02-14T05:22:01;100955.53;;;6.71;71.14
85918;BME280;76456;49.310;8.632;2024-02-14T05:24:27;100960.50;;;6.74;71.59
85918;BME280;76456;49.310;8.632;2024-02-14T05:26:54;100963.06;;;6.74;71.64
85918;BME280;76456;49.310;8.632;2024-02-14T05:29:19;100965.38;;;6.80;71.35
85918;BME280;76456;49.310;8.632;2024-02-14T05:31:46;100958.44;;;6.82;71.85
85918;BME280;76456;49.310;8.632;2024-02-14T05:34:13;100964.94;;;6.89;72.36
85918;BME280;76456;49.310;8.632;2024-02-14T05:36:39;100959.28;;;6.82;71.65
85918;BME280;76456;49.310;8.632;2024-02-14T05:39:04;100962.66;;;6.83;70.39
85918;BME280;76456;49.310;8.632;2024-02-14T05:41:33;100957.94;;;6.74;71.20
85918;BME280;76456;49.310;8.632;2024-02-14T05:43:59;100963.63;;;6.80;71.97
85918;BME280;76456;49.310;8.632;2024-02-14T05:46:25;100964.75;;;6.75;71.41
85918;BME280;76456;49.310;8.632;2024-02-14T05:48:50;100956.16;;;6.76;71.68
85918;BME280;76456;49.310;8.632;2024-02-14T05:51:17;100970.72;;;6.75;71.84
85918;BME280;76456;49.310;8.632;2024-02-14T05:53:42;100963.56;;;6.82;71.78
85918;BME280;76456;49.310;8.632;2024-02-14T05:56:08;100963.28;;;6.88;71.99
85918;BME280;76456;49.310;8.632;2024-02-14T05:58:33;100971.72;;;6.90;71.34
85918;BME280;76456;49.310;8.632;2024-02-14T06:00:58;100960.84;;;6.85;71.45
85918;BME280;76456;49.310;8.632;2024-02-14T06:03:24;100988.84;;;6.89;72.26
85918;BME280;76456;49.310;8.632;2024-02-14T06:05:49;100972.84;;;6.84;72.02
85918;BME280;76456;49.310;8.632;2024-02-14T06:08:15;100981.25;;;6.88;71.86
85918;BME280;76456;49.310;8.632;2024-02-14T06:10:40;100984.09;;;6.82;71.61
85918;BME280;76456;49.310;8.632;2024-02-14T06:13:05;100986.50;;;6.85;72.22
85918;BME280;76456;49.310;8.632;2024-02-14T06:15:31;100997.63;;;6.85;72.33
85918;BME280;76456;49.310;8.632;2024-02-14T06:17:56;100996.22;;;6.78;73.27
85918;BME280;76456;49.310;8.632;2024-02-14T06:20:22;100980.97;;;6.75;73.10
85918;BME280;76456;49.310;8.632;2024-02-14T06:22:48;100989.50;;;6.76;72.89
85918;BME280;76456;49.310;8.632;2024-02-14T06:25:13;100975.00;;;6.75;72.63
85918;BME280;76456;49.310;8.632;2024-02-14T06:27:38;100990.19;;;6.79;73.67
85918;BME280;76456;49.310;8.632;2024-02-14T06:30:04;101015.59;;;6.85;73.75
85918;BME280;76456;49.310;8.632;2024-02-14T06:32:30;101007.03;;;6.85;74.44
85918;BME280;76456;49.310;8.632;2024-02-14T06:34:55;101004.47;;;6.85;73.13
85918;BME280;76456;49.310;8.632;2024-02-14T06:37:20;101001.78;;;6.88;73.43
85918;BME280;76456;49.310;8.632;2024-02-14T06:39:46;100992.81;;;6.78;73.11
85918;BME280;76456;49.310;8.632;2024-02-14T06:42:13;101020.38;;;6.93;73.44
85918;BME280;76456;49.310;8.632;2024-02-14T06:44:38;101013.44;;;6.95;73.11
85918;BME280;76456;49.310;8.632;2024-02-14T06:47:04;100996.94;;;6.82;73.75
85918;BME280;76456;49.310;8.632;2024-02-14T06:49:29;101000.19;;;6.85;72.79
85918;BME280;76456;49.310;8.632;2024-02-14T06:51:54;101001.63;;;6.91;73.00
85918;BME280;76456;49.310;8.632;2024-02-14T06:54:20;101016.41;;;7.05;72.90
85918;BME280;76456;49.310;8.632;2024-02-14T06:56:45;100997.88;;;6.98;72.02
85918;BME280;76456;49.310;8.632;2024-02-14T06:59:10;101021.88;;;7.16;71.85
85918;BME280;76456;49.310;8.632;2024-02-14T07:01:36;101020.63;;;7.06;72.44
85918;BME280;76456;49.310;8.632;2024-02-14T07:04:01;100995.53;;;6.75;72.55
85918;BME280;76456;49.310;8.632;2024-02-14T07:06:27;101032.78;;;7.02;73.69
85918;BME280;76456;49.310;8.632;2024-02-14T07:08:53;101042.09;;;7.05;73.35
85918;BME280;76456;49.310;8.632;2024-02-14T07:11:18;101032.59;;;7.07;72.30
85918;BME280;76456;49.310;8.632;2024-02-14T07:13:44;101043.19;;;7.18;71.41
85918;BME280;76456;49.310;8.632;2024-02-14T07:16:09;101040.31;;;7.24;72.38
85918;BME280;76456;49.310;8.632;2024-02-14T07:18:34;101041.16;;;7.24;72.26
85918;BME280;76456;49.310;8.632;2024-02-14T07:21:00;101049.31;;;7.32;71.64
85918;BME280;76456;49.310;8.632;2024-02-14T07:23:26;101043.28;;;7.33;71.04
85918;BME280;76456;49.310;8.632;2024-02-14T07:25:52;101033.00;;;7.33;71.11
85918;BME280;76456;49.310;8.632;2024-02-14T07:28:18;101044.50;;;7.44;71.64
85918;BME280;76456;49.310;8.632;2024-02-14T07:30:43;101055.69;;;7.43;70.81
85918;BME280;76456;49.310;8.632;2024-02-14T07:33:09;101050.41;;;7.46;71.22
85918;BME280;76456;49.310;8.632;2024-02-14T07:35:36;101037.25;;;7.34;71.97
85918;BME280;76456;49.310;8.632;2024-02-14T07:38:01;101041.19;;;7.42;71.33
85918;BME280;76456;49.310;8.632;2024-02-14T07:40:27;101039.47;;;7.42;70.82
85918;BME280;76456;49.310;8.632;2024-02-14T07:42:56;101058.13;;;7.63;71.14
85918;BME280;76456;49.310;8.632;2024-02-14T07:45:21;101021.09;;;7.50;70.64
85918;BME280;76456;49.310;8.632;2024-02-14T07:47:49;101054.91;;;7.76;70.64
85918;BME280;76456;49.310;8.632;2024-02-14T07:50:14;101057.91;;;7.85;70.53
85918;BME280;76456;49.310;8.632;2024-02-14T07:52:43;101033.28;;;7.80;70.10
85918;BME280;76456;49.310;8.632;2024-02-14T07:55:09;101047.84;;;7.97;70.51
85918;BME280;76456;49.310;8.632;2024-02-14T07:57:37;101056.63;;;8.10;69.94
85918;BME280;76456;49.310;8.632;2024-02-14T08:00:03;101067.50;;;8.15;69.87
85918;BME280;76456;49.310;8.632;2024-02-14T08:02:29;101070.47;;;8.08;70.10
85918;BME280;76456;49.310;8.632;2024-02-14T08:04:55;101053.22;;;7.93;69.68
85918;BME280;76456;49.310;8.632;2024-02-14T08:07:20;101059.81;;;7.98;69.69
85918;BME280;76456;49.310;8.632;2024-02-14T08:09:45;101046.28;;;7.95;70.16
85918;BME280;76456;49.310;8.632;2024-02-14T08:12:11;101065.41;;;8.06;71.15
85918;BME280;76456;49.310;8.632;2024-02-14T08:14:36;101051.34;;;7.96;70.67
85918;BME280;76456;49.310;8.632;2024-02-14T08:17:02;101056.75;;;8.07;71.05
85918;BME280;76456;49.310;8.632;2024-02-14T08:19:27;101027.59;;;7.91;71.40
85918;BME280;76456;49.310;8.632;2024-02-14T08:21:52;101063.13;;;8.17;71.52
85918;BME280;76456;49.310;8.632;2024-02-14T08:24:24;101065.69;;;8.17;71.42
85918;BME280;76456;49.310;8.632;2024-02-14T08:26:50;101037.97;;;8.07;71.48
85918;BME280;76456;49.310;8.632;2024-02-14T08:29:15;101063.78;;;8.21;71.63
85918;BME280;76456;49.310;8.632;2024-02-14T08:31:40;101044.59;;;8.11;70.73
85918;BME280;76456;49.310;8.632;2024-02-14T08:34:05;101071.75;;;8.34;71.21
85918;BME280;76456;49.310;8.632;2024-02-14T08:36:31;101069.41;;;8.46;70.96
85918;BME280;76456;49.310;8.632;2024-02-14T08:38:56;101072.88;;;8.45;71.25
85918;BME280;76456;49.310;8.632;2024-02-14T08:41:22;101076.63;;;8.55;70.43
85918;BME280;76456;49.310;8.632;2024-02-14T08:43:48;101063.66;;;8.41;70.68
85918;BME280;76456;49.310;8.632;2024-02-14T08:46:17;101062.00;;;8.40;71.15
85918;BME280;76456;49.310;8.632;2024-02-14T08:48:42;101080.59;;;8.45;71.51
85918;BME280;76456;49.310;8.632;2024-02-14T08:51:12;101071.13;;;8.46;71.13
85918;BME280;76456;49.310;8.632;2024-02-14T08:53:38;101062.50;;;8.47;71.63
85918;BME280;76456;49.310;8.632;2024-02-14T08:56:03;101055.03;;;8.42;71.20
85918;BME280;76456;49.310;8.632;2024-02-14T08:58:29;101080.53;;;8.62;71.14
85918;BME280;76456;49.310;8.632;2024-02-14T09:00:54;101060.53;;;8.52;70.80
85918;BME280;76456;49.310;8.632;2024-02-14T09:03:20;101051.66;;;8.57;70.41
85918;BME280;76456;49.310;8.632;2024-02-14T09:05:45;101072.00;;;8.78;70.54
85918;BME280;76456;49.310;8.632;2024-02-14T09:08:12;101052.09;;;8.81;70.66
85918;BME280;76456;49.310;8.632;2024-02-14T09:10:38;101066.06;;;8.93;69.60
85918;BME280;76456;49.310;8.632;2024-02-14T09:13:03;101034.72;;;8.85;69.54
85918;BME280;76456;49.310;8.632;2024-02-14T09:15:29;101048.28;;;9.04;68.70
85918;BME280;76456;49.310;8.632;2024-02-14T09:17:56;101058.00;;;9.15;67.91
85918;BME280;76456;49.310;8.632;2024-02-14T09:20:22;101052.50;;;9.36;68.63
85918;BME280;76456;49.310;8.632;2024-02-14T09:22:47;101039.00;;;9.31;68.16
85918;BME280;76456;49.310;8.632;2024-02-14T09:25:13;101038.88;;;9.34;67.53
85918;BME280;76456;49.310;8.632;2024-02-14T09:27:39;101056.88;;;9.50;67.22
85918;BME280;76456;49.310;8.632;2024-02-14T09:30:05;101037.03;;;9.36;67.71
85918;BME280;76456;49.310;8.632;2024-02-14T09:32:32;101056.88;;;9.50;67.93
85918;BME280;76456;49.310;8.632;2024-02-14T09:34:58;101060.06;;;9.39;68.30
85918;BME280;76456;49.310;8.632;2024-02-14T09:37:24;101053.38;;;9.51;67.83
85918;BME280;76456;49.310;8.632;2024-02-14T09:39:50;101051.94;;;9.61;67.70
85918;BME280;76456;49.310;8.632;2024-02-14T09:42:16;101050.03;;;9.65;67.97
85918;BME280;76456;49.310;8.632;2024-02-14T09:44:45;101058.13;;;9.59;68.09
85918;BME280;76456;49.310;8.632;2024-02-14T09:47:12;101054.66;;;9.74;68.77
85918;BME280;76456;49.310;8.632;2024-02-14T09:49:39;101057.75;;;9.65;68.31
85918;BME280;76456;49.310;8.632;2024-02-14T09:52:05;101068.91;;;9.65;68.08
85918;BME280;76456;49.310;8.632;2024-02-14T09:54:31;101066.38;;;9.79;67.48
85918;BME280;76456;49.310;8.632;2024-02-14T09:56:59;101071.16;;;9.71;68.05
85918;BME280;76456;49.310;8.632;2024-02-14T09:59:26;101031.16;;;9.64;67.37
85918;BME280;76456;49.310;8.632;2024-02-14T10:01:52;101067.53;;;10.04;66.24
85918;BME280;76456;49.310;8.632;2024-02-14T10:04:19;101057.13;;;10.05;66.62
85918;BME280;76456;49.310;8.632;2024-02-14T10:06:45;101060.69;;;10.03;66.27
85918;BME280;76456;49.310;8.632;2024-02-14T10:09:11;101060.69;;;10.03;67.00
85918;BME280;76456;49.310;8.632;2024-02-14T10:11:37;101074.16;;;10.08;66.87
85918;BME280;76456;49.310;8.632;2024-02-14T10:14:04;101062.00;;;10.10;66.92
85918;BME280;76456;49.310;8.632;2024-02-14T10:16:34;101077.41;;;10.11;66.52
85918;BME280;76456;49.310;8.632;2024-02-14T10:19:00;101081.47;;;10.15;67.17
85918;BME280;76456;49.310;8.632;2024-02-14T10:21:26;101081.06;;;10.07;67.33
85918;BME280;76456;49.310;8.632;2024-02-14T10:23:53;101082.25;;;10.17;66.96
85918;BME280;76456;49.310;8.632;2024-02-14T10:26:19;101078.50;;;10.07;67.18
85918;BME280;76456;49.310;8.632;2024-02-14T10:28:44;101066.00;;;9.85;67.67
85918;BME280;76456;49.310;8.632;2024-02-14T10:31:10;101070.19;;;9.88;67.97
85918;BME280;76456;49.310;8.632;2024-02-14T10:33:36;101076.66;;;9.95;67.90
85918;BME280;76456;49.310;8.632;2024-02-14T10:36:01;101096.66;;;10.06;67.97
85918;BME280;76456;49.310;8.632;2024-02-14T10:38:31;101069.25;;;9.89;68.23
85918;BME280;76456;49.310;8.632;2024-02-14T10:40:59;101089.09;;;10.03;68.77
85918;BME280;76456;49.310;8.632;2024-02-14T10:43:25;101083.28;;;9.99;68.31
85918;BME280;76456;49.310;8.632;2024-02-14T10:45:53;101098.91;;;10.12;68.45
85918;BME280;76456;49.310;8.632;2024-02-14T10:48:22;101097.88;;;10.14;68.85
85918;BME280;76456;49.310;8.632;2024-02-14T10:50:52;101111.34;;;10.19;69.21
85918;BME280;76456;49.310;8.632;2024-02-14T10:53:19;101104.69;;;10.15;69.60
85918;BME280;76456;49.310;8.632;2024-02-14T10:55:49;101098.28;;;10.22;69.78
85918;BME280;76456;49.310;8.632;2024-02-14T10:58:17;101091.19;;;10.26;70.07
85918;BME280;76456;49.310;8.632;2024-02-14T11:00:44;101089.91;;;10.19;70.59
85918;BME280;76456;49.310;8.632;2024-02-14T11:03:10;101062.84;;;10.10;71.37
85918;BME280;76456;49.310;8.632;2024-02-14T11:05:46;101084.00;;;10.17;72.15
85918;BME280;76456;49.310;8.632;2024-02-14T11:08:15;101086.34;;;10.06;72.71
85918;BME280;76456;49.310;8.632;2024-02-14T11:10:40;101109.03;;;10.15;72.75
85918;BME280;76456;49.310;8.632;2024-02-14T11:13:12;101096.47;;;10.09;73.16
85918;BME280;76456;49.310;8.632;2024-02-14T11:15:44;101090.00;;;10.02;73.31
85918;BME280;76456;49.310;8.632;2024-02-14T11:18:10;101094.81;;;10.08;73.01
85918;BME280;76456;49.310;8.632;2024-02-14T11:20:36;101097.78;;;10.16;73.52
85918;BME280;76456;49.310;8.632;2024-02-14T11:23:03;101096.53;;;10.23;73.25
85918;BME280;76456;49.310;8.632;2024-02-14T11:25:31;101085.31;;;10.24;73.44
85918;BME280;76456;49.310;8.632;2024-02-14T11:27:58;101072.22;;;10.55;72.10
85918;BME280;76456;49.310;8.632;2024-02-14T11:30:29;101092.06;;;10.69;71.78
85918;BME280;76456;49.310;8.632;2024-02-14T11:32:55;101094.34;;;10.74;71.67
85918;BME280;76456;49.310;8.632;2024-02-14T11:35:21;101088.19;;;10.76;71.35
85918;BME280;76456;49.310;8.632;2024-02-14T11:37:53;101097.84;;;10.87;71.70
85918;BME280;76456;49.310;8.632;2024-02-14T11:40:19;101087.22;;;10.91;71.42
85918;BME280;76456;49.310;8.632;2024-02-14T11:42:44;101075.19;;;10.63;73.02
85918;BME280;76456;49.310;8.632;2024-02-14T11:45:13;101071.84;;;10.61;73.33
85918;BME280;76456;49.310;8.632;2024-02-14T11:47:38;101065.97;;;10.59;73.11
85918;BME280;76456;49.310;8.632;2024-02-14T11:50:04;101089.00;;;10.77;73.49
85918;BME280;76456;49.310;8.632;2024-02-14T11:52:30;101094.59;;;10.97;73.14
85918;BME280;76456;49.310;8.632;2024-02-14T11:54:55;101069.53;;;10.85;72.71
85918;BME280;76456;49.310;8.632;2024-02-14T11:57:22;101078.94;;;11.00;72.67
85918;BME280;76456;49.310;8.632;2024-02-14T11:59:52;101060.94;;;10.85;72.66
85918;BME280;76456;49.310;8.632;2024-02-14T12:02:19;101077.81;;;11.04;72.26
85918;BME280;76456;49.310;8.632;2024-02-14T12:04:45;101082.66;;;11.23;72.53
85918;BME280;76456;49.310;8.632;2024-02-14T12:07:11;101081.63;;;11.26;71.90
85918;BME280;76456;49.310;8.632;2024-02-14T12:09:37;101064.41;;;11.12;72.21
85918;BME280;76456;49.310;8.632;2024-02-14T12:12:04;101046.94;;;11.16;72.03
85918;BME280;76456;49.310;8.632;2024-02-14T12:14:30;101067.97;;;11.24;71.90
85918;BME280;76456;49.310;8.632;2024-02-14T12:17:01;101057.03;;;11.33;71.32
85918;BME280;76456;49.310;8.632;2024-02-14T12:19:32;101032.88;;;11.46;70.77
85918;BME280;76456;49.310;8.632;2024-02-14T12:21:59;101045.81;;;11.73;70.15
85918;BME280;76456;49.310;8.632;2024-02-14T12:24:27;101049.38;;;11.58;70.74
85918;BME280;76456;49.310;8.632;2024-02-14T12:26:54;101048.00;;;11.53;71.17
85918;BME280;76456;49.310;8.632;2024-02-14T12:29:19;101051.56;;;11.37;71.61
85918;BME280;76456;49.310;8.632;2024-02-14T12:31:44;101050.03;;;11.35;71.44
85918;BME280;76456;49.310;8.632;2024-02-14T12:34:11;101032.50;;;11.26;71.79
85918;BME280;76456;49.310;8.632;2024-02-14T12:36:36;101024.34;;;11.32;71.67
85918;BME280;76456;49.310;8.632;2024-02-14T12:39:02;101043.47;;;11.56;71.44
85918;BME280;76456;49.310;8.632;2024-02-14T12:41:28;101037.13;;;11.74;70.28
85918;BME280;76456;49.310;8.632;2024-02-14T12:43:59;101042.25;;;12.01;69.22
85918;BME280;76456;49.310;8.632;2024-02-14T12:46:25;101045.22;;;12.08;68.31
85918;BME280;76456;49.310;8.632;2024-02-14T12:48:51;101052.34;;;11.92;68.78
85918;BME280;76456;49.310;8.632;2024-02-14T12:51:16;101045.00;;;11.98;68.91